sensor_id;sensor_type;location;lat;lon;timestamp;temperature;humidity
15638;DHT22;26604;53.596;10.042;2023-02-01T00:02:05;6.00;99.90
15638;DHT22;26604;53.596;10.042;2023-02-01T00:04:31;6.00;99.90
15638;DHT22;26604;53.596;10.042;2023-02-01T00:06:58;6.10;99.90
15638;DHT22;26604;53.596;10.042;2023-02-01T00:09:26;6.10;99.90
15638;DHT22;26604;53.596;10.042;2023-02-01T00:11:52;6.10;99.90
15638;DHT22;26604;53.596;10.042;2023-02-01T00:14:19;6.10;99.90
15638;DHT22;26604;53.596;10.042;2023-02-01T00:16:47;5.90;99.90
15638;DHT22;26604;53.596;10.042;2023-02-01T00:19:14;5.80;99.90
15638;DHT22;26604;53.596;10.042;2023-02-01T00:21:41;5.60;99.90
15638;DHT22;26604;53.596;10.042;2023-02-01T00:24:09;5.60;99.90
15638;DHT22;26604;53.596;10.042;2023-02-01T00:26:36;5.60;99.90
15638;DHT22;26604;53.596;10.042;2023-02-01T00:29:05;5.60;99.90
15638;DHT22;26604;53.596;10.042;2023-02-01T00:31:31;5.50;99.90
15638;DHT22;26604;53.596;10.042;2023-02-01T00:34:00;5.50;99.90
15638;DHT22;26604;53.596;10.042;2023-02-01T00:36:26;5.50;99.90
15638;DHT22;26604;53.596;10.042;2023-02-01T00:38:53;5.50;99.90
15638;DHT22;26604;53.596;10.042;2023-02-01T00:41:20;5.60;99.90
15638;DHT22;26604;53.596;10.042;2023-02-01T00:43:47;5.60;99.90
15638;DHT22;26604;53.596;10.042;2023-02-01T00:46:15;5.60;99.90
15638;DHT22;26604;53.596;10.042;2023-02-01T00:48:42;5.60;99.90
15638;DHT22;26604;53.596;10.042;2023-02-01T00:51:11;5.70;99.90
15638;DHT22;26604;53.596;10.042;2023-02-01T00:53:39;5.70;99.90
15638;DHT22;26604;53.596;10.042;2023-02-01T00:56:06;5.80;99.90
15638;DHT22;26604;53.596;10.042;2023-02-01T00:58:33;5.80;99.90
15638;DHT22;26604;53.596;10.042;2023-02-01T01:01:04;5.90;99.90
15638;DHT22;26604;53.596;10.042;2023-02-01T01:03:31;5.90;99.90
15638;DHT22;26604;53.596;10.042;2023-02-01T01:05:59;5.90;99.90
15638;DHT22;26604;53.596;10.042;2023-02-01T01:08:28;5.90;99.90
15638;DHT22;26604;53.596;10.042;2023-02-01T01:10:54;5.90;99.90
15638;DHT22;26604;53.596;10.042;2023-02-01T01:13:21;6.00;99.90
15638;DHT22;26604;53.596;10.042;2023-02-01T01:15:47;6.00;99.90
15638;DHT22;26604;53.596;10.042;2023-02-01T01:18:14;6.00;99.90
15638;DHT22;26604;53.596;10.042;2023-02-01T01:20:41;6.00;99.90
15638;DHT22;26604;53.596;10.042;2023-02-01T01:23:08;6.00;99.90
15638;DHT22;26604;53.596;10.042;2023-02-01T01:25:38;6.00;99.90
15638;DHT22;26604;53.596;10.042;2023-02-01T01:28:05;6.10;99.90
15638;DHT22;26604;53.596;10.042;2023-02-01T01:30:32;6.10;99.90
15638;DHT22;26604;53.596;10.042;2023-02-01T01:32:59;6.00;99.90
15638;DHT22;26604;53.596;10.042;2023-02-01T01:35:26;6.00;99.90
15638;DHT22;26604;53.596;10.042;2023-02-01T01:37:54;6.00;99.90
15638;DHT22;26604;53.596;10.042;2023-02-01T01:40:21;6.10;99.90
15638;DHT22;26604;53.596;10.042;2023-02-01T01:42:49;6.10;99.90
15638;DHT22;26604;53.596;10.042;2023-02-01T01:45:20;6.10;99.90
15638;DHT22;26604;53.596;10.042;2023-02-01T01:47:47;6.10;99.90
15638;DHT22;26604;53.596;10.042;2023-02-01T01:50:16;6.10;99.90
15638;DHT22;26604;53.596;10.042;2023-02-01T01:52:45;6.10;99.90
15638;DHT22;26604;53.596;10.042;2023-02-01T01:55:13;6.10;99.90
15638;DHT22;26604;53.596;10.042;2023-02-01T01:57:41;6.10;99.90
15638;DHT22;26604;53.596;10.042;2023-02-01T02:00:11;6.20;99.90
15638;DHT22;26604;53.596;10.042;2023-02-01T02:02:38;6.20;99.90
15638;DHT22;26604;53.596;10.042;2023-02-01T02:05:05;6.20;99.90
15638;DHT22;26604;53.596;10.042;2023-02-01T02:07:34;6.20;99.90
15638;DHT22;26604;53.596;10.042;2023-02-01T02:10:02;6.20;99.90
15638;DHT22;26604;53.596;10.042;2023-02-01T02:12:32;6.30;99.90
15638;DHT22;26604;53.596;10.042;2023-02-01T02:14:59;6.30;99.90
15638;DHT22;26604;53.596;10.042;2023-02-01T02:17:30;6.30;99.90
15638;DHT22;26604;53.596;10.042;2023-02-01T02:22:48;6.30;99.90
15638;DHT22;26604;53.596;10.042;2023-02-01T02:25:42;6.30;99.90
15638;DHT22;26604;53.596;10.042;2023-02-01T02:28:17;6.30;99.90
15638;DHT22;26604;53.596;10.042;2023-02-01T02:31:08;6.30;99.90
15638;DHT22;26604;53.596;10.042;2023-02-01T02:33:57;6.20;99.90
15638;DHT22;26604;53.596;10.042;2023-02-01T02:36:30;6.20;99.90
15638;DHT22;26604;53.596;10.042;2023-02-01T02:39:03;6.20;99.90
15638;DHT22;26604;53.596;10.042;2023-02-01T02:41:33;6.10;99.90
15638;DHT22;26604;53.596;10.042;2023-02-01T02:44:21;6.20;99.90
15638;DHT22;26604;53.596;10.042;2023-02-01T02:47:09;6.20;99.90
15638;DHT22;26604;53.596;10.042;2023-02-01T02:49:59;6.20;99.90
15638;DHT22;26604;53.596;10.042;2023-02-01T02:52:46;6.10;99.90
15638;DHT22;26604;53.596;10.042;2023-02-01T02:55:32;6.10;99.90
15638;DHT22;26604;53.596;10.042;2023-02-01T02:57:59;6.10;99.90
15638;DHT22;26604;53.596;10.042;2023-02-01T03:00:43;6.00;99.90
15638;DHT22;26604;53.596;10.042;2023-02-01T03:03:28;5.90;99.90
15638;DHT22;26604;53.596;10.042;2023-02-01T03:06:13;6.00;99.90
15638;DHT22;26604;53.596;10.042;2023-02-01T03:08:41;5.90;99.90
15638;DHT22;26604;53.596;10.042;2023-02-01T03:11:11;5.90;99.90
15638;DHT22;26604;53.596;10.042;2023-02-01T03:13:38;5.90;99.90
15638;DHT22;26604;53.596;10.042;2023-02-01T03:16:06;5.80;99.90
15638;DHT22;26604;53.596;10.042;2023-02-01T03:18:41;5.80;99.90
15638;DHT22;26604;53.596;10.042;2023-02-01T03:21:10;5.70;99.90
15638;DHT22;26604;53.596;10.042;2023-02-01T03:23:40;5.70;99.90
15638;DHT22;26604;53.596;10.042;2023-02-01T03:26:09;5.60;99.90
15638;DHT22;26604;53.596;10.042;2023-02-01T03:28:37;5.60;99.90
15638;DHT22;26604;53.596;10.042;2023-02-01T03:31:06;5.60;99.90
15638;DHT22;26604;53.596;10.042;2023-02-01T03:33:33;5.60;99.90
15638;DHT22;26604;53.596;10.042;2023-02-01T03:36:09;5.60;99.90
15638;DHT22;26604;53.596;10.042;2023-02-01T03:38:40;5.60;99.90
15638;DHT22;26604;53.596;10.042;2023-02-01T03:41:11;5.50;99.90
15638;DHT22;26604;53.596;10.042;2023-02-01T03:43:42;5.40;99.90
15638;DHT22;26604;53.596;10.042;2023-02-01T03:46:11;5.50;99.90
15638;DHT22;26604;53.596;10.042;2023-02-01T03:48:38;5.50;99.90
15638;DHT22;26604;53.596;10.042;2023-02-01T03:51:05;5.40;99.90
15638;DHT22;26604;53.596;10.042;2023-02-01T03:53:33;5.40;99.90
15638;DHT22;26604;53.596;10.042;2023-02-01T03:56:03;5.40;99.90
15638;DHT22;26604;53.596;10.042;2023-02-01T03:58:30;5.40;99.90
15638;DHT22;26604;53.596;10.042;2023-02-01T04:00:57;5.30;99.90
15638;DHT22;26604;53.596;10.042;2023-02-01T04:03:24;5.40;99.90
15638;DHT22;26604;53.596;10.042;2023-02-01T04:05:51;5.30;99.90
15638;DHT22;26604;53.596;10.042;2023-02-01T04:08:18;5.30;99.90
15638;DHT22;26604;53.596;10.042;2023-02-01T04:10:45;5.40;99.90
15638;DHT22;26604;53.596;10.042;2023-02-01T04:13:13;5.30;99.90
15638;DHT22;26604;53.596;10.042;2023-02-01T04:15:40;5.30;99.90
15638;DHT22;26604;53.596;10.042;2023-02-01T04:18:07;5.30;99.90
15638;DHT22;26604;53.596;10.042;2023-02-01T04:20:33;5.30;99.90
15638;DHT22;26604;53.596;10.042;2023-02-01T04:23:00;5.30;99.90
15638;DHT22;26604;53.596;10.042;2023-02-01T04:25:27;5.30;99.90
15638;DHT22;26604;53.596;10.042;2023-02-01T04:27:54;5.30;99.90
15638;DHT22;26604;53.596;10.042;2023-02-01T04:30:22;5.30;99.90
15638;DHT22;26604;53.596;10.042;2023-02-01T04:32:49;5.20;99.90
15638;DHT22;26604;53.596;10.042;2023-02-01T04:35:16;5.20;99.90
15638;DHT22;26604;53.596;10.042;2023-02-01T04:37:43;5.20;99.90
15638;DHT22;26604;53.596;10.042;2023-02-01T04:40:10;5.30;99.90
15638;DHT22;26604;53.596;10.042;2023-02-01T04:42:37;5.30;99.90
15638;DHT22;26604;53.596;10.042;2023-02-01T04:45:04;5.30;99.90
15638;DHT22;26604;53.596;10.042;2023-02-01T04:47:32;5.30;99.90
15638;DHT22;26604;53.596;10.042;2023-02-01T04:49:59;5.20;99.90
15638;DHT22;26604;53.596;10.042;2023-02-01T04:52:25;5.20;99.90
15638;DHT22;26604;53.596;10.042;2023-02-01T04:54:53;5.20;99.90
15638;DHT22;26604;53.596;10.042;2023-02-01T04:57:22;5.20;99.90
15638;DHT22;26604;53.596;10.042;2023-02-01T04:59:49;5.20;99.90
15638;DHT22;26604;53.596;10.042;2023-02-01T05:02:16;5.10;99.90
15638;DHT22;26604;53.596;10.042;2023-02-01T05:04:44;5.10;99.90
15638;DHT22;26604;53.596;10.042;2023-02-01T05:07:10;5.10;99.90
15638;DHT22;26604;53.596;10.042;2023-02-01T05:09:37;5.10;99.90
15638;DHT22;26604;53.596;10.042;2023-02-01T05:12:04;5.00;99.90
15638;DHT22;26604;53.596;10.042;2023-02-01T05:14:48;4.90;99.90
15638;DHT22;26604;53.596;10.042;2023-02-01T05:17:15;4.90;99.90
15638;DHT22;26604;53.596;10.042;2023-02-01T05:19:41;4.80;99.90
15638;DHT22;26604;53.596;10.042;2023-02-01T05:22:09;4.70;99.90
15638;DHT22;26604;53.596;10.042;2023-02-01T05:24:36;4.60;99.90
15638;DHT22;26604;53.596;10.042;2023-02-01T05:27:03;4.50;99.90
15638;DHT22;26604;53.596;10.042;2023-02-01T05:29:29;4.40;99.90
15638;DHT22;26604;53.596;10.042;2023-02-01T05:31:56;4.30;99.90
15638;DHT22;26604;53.596;10.042;2023-02-01T05:34:23;4.20;99.90
15638;DHT22;26604;53.596;10.042;2023-02-01T05:36:49;4.10;99.90
15638;DHT22;26604;53.596;10.042;2023-02-01T05:39:17;4.10;99.90
15638;DHT22;26604;53.596;10.042;2023-02-01T05:41:44;4.00;99.90
15638;DHT22;26604;53.596;10.042;2023-02-01T05:44:11;4.00;99.90
15638;DHT22;26604;53.596;10.042;2023-02-01T05:46:37;4.00;99.90
15638;DHT22;26604;53.596;10.042;2023-02-01T05:49:04;3.90;99.90
15638;DHT22;26604;53.596;10.042;2023-02-01T05:51:31;3.90;99.90
15638;DHT22;26604;53.596;10.042;2023-02-01T05:53:58;3.90;99.90
15638;DHT22;26604;53.596;10.042;2023-02-01T05:56:26;3.80;99.90
15638;DHT22;26604;53.596;10.042;2023-02-01T05:58:53;3.80;99.90
15638;DHT22;26604;53.596;10.042;2023-02-01T06:01:20;3.80;99.90
15638;DHT22;26604;53.596;10.042;2023-02-01T06:03:46;3.70;99.90
15638;DHT22;26604;53.596;10.042;2023-02-01T06:06:13;3.70;99.90
15638;DHT22;26604;53.596;10.042;2023-02-01T06:08:40;3.60;99.90
15638;DHT22;26604;53.596;10.042;2023-02-01T06:11:06;3.60;99.90
15638;DHT22;26604;53.596;10.042;2023-02-01T06:13:34;3.60;99.90
15638;DHT22;26604;53.596;10.042;2023-02-01T06:16:04;3.60;99.90
15638;DHT22;26604;53.596;10.042;2023-02-01T06:18:32;3.60;99.90
15638;DHT22;26604;53.596;10.042;2023-02-01T06:20:59;3.60;99.90
15638;DHT22;26604;53.596;10.042;2023-02-01T06:23:26;3.60;99.90
15638;DHT22;26604;53.596;10.042;2023-02-01T06:25:53;3.60;99.90
15638;DHT22;26604;53.596;10.042;2023-02-01T06:28:24;3.60;99.90
15638;DHT22;26604;53.596;10.042;2023-02-01T06:30:52;3.60;99.90
15638;DHT22;26604;53.596;10.042;2023-02-01T06:33:19;3.60;99.90
15638;DHT22;26604;53.596;10.042;2023-02-01T06:35:46;3.60;99.90
15638;DHT22;26604;53.596;10.042;2023-02-01T06:38:13;3.70;99.90
15638;DHT22;26604;53.596;10.042;2023-02-01T06:40:40;3.70;99.90
15638;DHT22;26604;53.596;10.042;2023-02-01T06:43:07;3.70;99.90
15638;DHT22;26604;53.596;10.042;2023-02-01T06:45:34;4.80;99.90
15638;DHT22;26604;53.596;10.042;2023-02-01T06:48:02;3.90;99.90
15638;DHT22;26604;53.596;10.042;2023-02-01T06:50:28;3.90;99.90
15638;DHT22;26604;53.596;10.042;2023-02-01T06:52:55;4.00;99.90
15638;DHT22;26604;53.596;10.042;2023-02-01T06:55:22;4.00;99.90
15638;DHT22;26604;53.596;10.042;2023-02-01T06:57:57;4.10;99.90
15638;DHT22;26604;53.596;10.042;2023-02-01T07:00:24;4.10;99.90
15638;DHT22;26604;53.596;10.042;2023-02-01T07:02:51;4.10;99.90
15638;DHT22;26604;53.596;10.042;2023-02-01T07:05:19;4.10;99.90
15638;DHT22;26604;53.596;10.042;2023-02-01T07:07:46;4.20;99.90
15638;DHT22;26604;53.596;10.042;2023-02-01T07:10:12;4.20;99.90
15638;DHT22;26604;53.596;10.042;2023-02-01T07:12:39;4.20;99.90
15638;DHT22;26604;53.596;10.042;2023-02-01T07:15:06;4.30;99.90
15638;DHT22;26604;53.596;10.042;2023-02-01T07:17:33;4.30;99.90
15638;DHT22;26604;53.596;10.042;2023-02-01T07:19:59;4.40;99.90
15638;DHT22;26604;53.596;10.042;2023-02-01T07:22:28;4.40;99.90
15638;DHT22;26604;53.596;10.042;2023-02-01T07:24:55;4.40;99.90
15638;DHT22;26604;53.596;10.042;2023-02-01T07:27:21;4.50;99.90
15638;DHT22;26604;53.596;10.042;2023-02-01T07:29:50;4.50;99.90
15638;DHT22;26604;53.596;10.042;2023-02-01T07:32:16;4.60;99.90
15638;DHT22;26604;53.596;10.042;2023-02-01T07:34:43;4.60;99.90
15638;DHT22;26604;53.596;10.042;2023-02-01T07:37:10;4.70;99.90
15638;DHT22;26604;53.596;10.042;2023-02-01T07:39:38;4.70;99.90
15638;DHT22;26604;53.596;10.042;2023-02-01T07:42:05;4.80;99.90
15638;DHT22;26604;53.596;10.042;2023-02-01T07:44:32;4.90;99.90
15638;DHT22;26604;53.596;10.042;2023-02-01T07:46:58;4.90;99.90
15638;DHT22;26604;53.596;10.042;2023-02-01T07:49:25;4.90;99.90
15638;DHT22;26604;53.596;10.042;2023-02-01T07:51:52;4.90;99.90
15638;DHT22;26604;53.596;10.042;2023-02-01T07:54:18;4.90;99.90
15638;DHT22;26604;53.596;10.042;2023-02-01T07:56:46;4.80;99.90
15638;DHT22;26604;53.596;10.042;2023-02-01T07:59:13;4.90;99.90
15638;DHT22;26604;53.596;10.042;2023-02-01T08:01:41;4.90;99.90
15638;DHT22;26604;53.596;10.042;2023-02-01T08:04:07;4.90;99.90
15638;DHT22;26604;53.596;10.042;2023-02-01T08:06:35;5.00;99.90
15638;DHT22;26604;53.596;10.042;2023-02-01T08:09:02;5.10;99.90
15638;DHT22;26604;53.596;10.042;2023-02-01T08:11:28;5.10;99.90
15638;DHT22;26604;53.596;10.042;2023-02-01T08:13:57;5.10;99.90
15638;DHT22;26604;53.596;10.042;2023-02-01T08:16:24;5.20;99.90
15638;DHT22;26604;53.596;10.042;2023-02-01T08:18:51;5.20;99.90
15638;DHT22;26604;53.596;10.042;2023-02-01T08:21:18;5.40;99.90
15638;DHT22;26604;53.596;10.042;2023-02-01T08:23:45;5.40;99.90
15638;DHT22;26604;53.596;10.042;2023-02-01T08:26:12;5.40;99.90
15638;DHT22;26604;53.596;10.042;2023-02-01T08:28:40;5.50;99.90
15638;DHT22;26604;53.596;10.042;2023-02-01T08:31:10;5.60;99.90
15638;DHT22;26604;53.596;10.042;2023-02-01T08:33:37;5.70;99.90
15638;DHT22;26604;53.596;10.042;2023-02-01T08:36:04;5.80;99.90
15638;DHT22;26604;53.596;10.042;2023-02-01T08:38:31;5.90;99.90
15638;DHT22;26604;53.596;10.042;2023-02-01T08:41:02;6.00;99.90
15638;DHT22;26604;53.596;10.042;2023-02-01T08:43:30;6.10;99.90
15638;DHT22;26604;53.596;10.042;2023-02-01T08:45:56;6.10;99.90
15638;DHT22;26604;53.596;10.042;2023-02-01T08:48:24;6.00;99.90
15638;DHT22;26604;53.596;10.042;2023-02-01T08:50:51;5.90;99.90
15638;DHT22;26604;53.596;10.042;2023-02-01T08:53:18;5.90;99.90
15638;DHT22;26604;53.596;10.042;2023-02-01T08:55:45;5.80;99.90
15638;DHT22;26604;53.596;10.042;2023-02-01T08:58:12;5.70;99.90
15638;DHT22;26604;53.596;10.042;2023-02-01T09:00:39;5.60;99.90
15638;DHT22;26604;53.596;10.042;2023-02-01T09:03:07;5.60;99.90
15638;DHT22;26604;53.596;10.042;2023-02-01T09:05:37;5.60;99.90
15638;DHT22;26604;53.596;10.042;2023-02-01T09:08:03;5.60;99.90
15638;DHT22;26604;53.596;10.042;2023-02-01T09:10:30;5.70;99.90
15638;DHT22;26604;53.596;10.042;2023-02-01T09:12:57;5.80;99.90
15638;DHT22;26604;53.596;10.042;2023-02-01T09:15:24;5.90;99.90
15638;DHT22;26604;53.596;10.042;2023-02-01T09:17:51;6.10;99.90
15638;DHT22;26604;53.596;10.042;2023-02-01T09:20:17;6.10;99.90
15638;DHT22;26604;53.596;10.042;2023-02-01T09:22:51;6.20;99.90
15638;DHT22;26604;53.596;10.042;2023-02-01T09:25:18;6.20;99.90
15638;DHT22;26604;53.596;10.042;2023-02-01T09:27:44;6.30;99.90
15638;DHT22;26604;53.596;10.042;2023-02-01T09:30:11;6.40;99.90
15638;DHT22;26604;53.596;10.042;2023-02-01T09:32:38;6.50;99.90
15638;DHT22;26604;53.596;10.042;2023-02-01T09:35:05;6.60;99.90
15638;DHT22;26604;53.596;10.042;2023-02-01T09:37:32;6.70;99.90
15638;DHT22;26604;53.596;10.042;2023-02-01T09:40:00;6.70;99.90
15638;DHT22;26604;53.596;10.042;2023-02-01T09:42:34;6.80;99.90
15638;DHT22;26604;53.596;10.042;2023-02-01T09:45:10;6.80;99.90
15638;DHT22;26604;53.596;10.042;2023-02-01T09:47:39;6.80;99.90
15638;DHT22;26604;53.596;10.042;2023-02-01T09:50:09;6.70;99.90
15638;DHT22;26604;53.596;10.042;2023-02-01T09:52:40;6.80;99.90
15638;DHT22;26604;53.596;10.042;2023-02-01T09:55:11;6.80;99.90
15638;DHT22;26604;53.596;10.042;2023-02-01T09:57:41;6.80;99.90
15638;DHT22;26604;53.596;10.042;2023-02-01T10:00:14;6.90;99.90
15638;DHT22;26604;53.596;10.042;2023-02-01T10:02:41;6.90;99.90
15638;DHT22;26604;53.596;10.042;2023-02-01T10:05:12;6.90;99.90
15638;DHT22;26604;53.596;10.042;2023-02-01T10:07:40;7.10;99.90
15638;DHT22;26604;53.596;10.042;2023-02-01T10:10:12;7.20;99.90
15638;DHT22;26604;53.596;10.042;2023-02-01T10:15:30;7.30;99.90
15638;DHT22;26604;53.596;10.042;2023-02-01T10:21:02;7.30;99.90
15638;DHT22;26604;53.596;10.042;2023-02-01T10:26:18;7.50;99.90
15638;DHT22;26604;53.596;10.042;2023-02-01T10:28:46;7.50;99.90
15638;DHT22;26604;53.596;10.042;2023-02-01T10:31:14;7.40;99.90
15638;DHT22;26604;53.596;10.042;2023-02-01T10:33:43;7.30;99.90
15638;DHT22;26604;53.596;10.042;2023-02-01T10:36:13;7.20;99.90
15638;DHT22;26604;53.596;10.042;2023-02-01T10:38:40;7.20;99.90
15638;DHT22;26604;53.596;10.042;2023-02-01T10:41:10;7.20;99.90
15638;DHT22;26604;53.596;10.042;2023-02-01T10:43:39;7.20;99.90
15638;DHT22;26604;53.596;10.042;2023-02-01T10:46:06;7.00;99.90
15638;DHT22;26604;53.596;10.042;2023-02-01T10:48:33;6.90;99.90
15638;DHT22;26604;53.596;10.042;2023-02-01T10:51:02;6.80;99.90
15638;DHT22;26604;53.596;10.042;2023-02-01T10:53:30;6.60;99.90
15638;DHT22;26604;53.596;10.042;2023-02-01T10:55:58;6.40;99.90
15638;DHT22;26604;53.596;10.042;2023-02-01T10:58:31;6.30;99.90
15638;DHT22;26604;53.596;10.042;2023-02-01T11:01:00;6.20;99.90
15638;DHT22;26604;53.596;10.042;2023-02-01T11:03:33;6.10;99.90
15638;DHT22;26604;53.596;10.042;2023-02-01T11:06:00;6.10;99.90
15638;DHT22;26604;53.596;10.042;2023-02-01T11:08:27;6.10;99.90
15638;DHT22;26604;53.596;10.042;2023-02-01T11:10:58;6.00;99.90
15638;DHT22;26604;53.596;10.042;2023-02-01T11:13:27;5.90;99.90
15638;DHT22;26604;53.596;10.042;2023-02-01T11:15:55;5.90;99.90
15638;DHT22;26604;53.596;10.042;2023-02-01T11:18:27;5.80;99.90
15638;DHT22;26604;53.596;10.042;2023-02-01T11:20:54;5.70;99.90
15638;DHT22;26604;53.596;10.042;2023-02-01T11:23:21;5.60;99.90
15638;DHT22;26604;53.596;10.042;2023-02-01T11:25:49;5.60;99.90
15638;DHT22;26604;53.596;10.042;2023-02-01T11:28:17;5.60;99.90
15638;DHT22;26604;53.596;10.042;2023-02-01T11:30:45;5.60;99.90
15638;DHT22;26604;53.596;10.042;2023-02-01T11:33:13;5.70;99.90
15638;DHT22;26604;53.596;10.042;2023-02-01T11:35:42;5.90;99.90
15638;DHT22;26604;53.596;10.042;2023-02-01T11:38:18;6.00;99.90
15638;DHT22;26604;53.596;10.042;2023-02-01T11:40:45;6.00;99.90
15638;DHT22;26604;53.596;10.042;2023-02-01T11:43:13;6.20;99.90
15638;DHT22;26604;53.596;10.042;2023-02-01T11:45:41;6.20;99.90
15638;DHT22;26604;53.596;10.042;2023-02-01T11:48:19;6.30;99.90
15638;DHT22;26604;53.596;10.042;2023-02-01T11:50:49;6.30;99.90
15638;DHT22;26604;53.596;10.042;2023-02-01T11:53:23;6.40;99.90
15638;DHT22;26604;53.596;10.042;2023-02-01T11:55:56;6.50;99.90
15638;DHT22;26604;53.596;10.042;2023-02-01T11:58:38;6.50;99.90
15638;DHT22;26604;53.596;10.042;2023-02-01T12:01:12;6.80;99.90
15638;DHT22;26604;53.596;10.042;2023-02-01T12:03:53;6.50;99.90
15638;DHT22;26604;53.596;10.042;2023-02-01T12:06:26;6.40;99.90
15638;DHT22;26604;53.596;10.042;2023-02-01T12:09:02;6.40;99.90
15638;DHT22;26604;53.596;10.042;2023-02-01T12:11:34;6.40;99.90
15638;DHT22;26604;53.596;10.042;2023-02-01T12:14:07;6.40;99.90
15638;DHT22;26604;53.596;10.042;2023-02-01T12:16:37;6.30;99.90
15638;DHT22;26604;53.596;10.042;2023-02-01T12:19:19;6.20;99.90
15638;DHT22;26604;53.596;10.042;2023-02-01T12:21:59;6.20;99.90
15638;DHT22;26604;53.596;10.042;2023-02-01T12:24:40;6.10;99.90
15638;DHT22;26604;53.596;10.042;2023-02-01T12:30:03;5.90;99.90
15638;DHT22;26604;53.596;10.042;2023-02-01T12:32:43;5.90;99.90
15638;DHT22;26604;53.596;10.042;2023-02-01T12:35:14;5.90;99.90
15638;DHT22;26604;53.596;10.042;2023-02-01T12:37:51;5.80;99.90
15638;DHT22;26604;53.596;10.042;2023-02-01T12:40:25;5.80;99.90
15638;DHT22;26604;53.596;10.042;2023-02-01T12:42:56;5.70;99.90
15638;DHT22;26604;53.596;10.042;2023-02-01T12:45:26;5.60;99.90
15638;DHT22;26604;53.596;10.042;2023-02-01T12:47:57;5.50;99.90
15638;DHT22;26604;53.596;10.042;2023-02-01T12:50:27;5.40;99.90
15638;DHT22;26604;53.596;10.042;2023-02-01T12:53:01;5.30;99.90
15638;DHT22;26604;53.596;10.042;2023-02-01T12:55:34;5.20;99.90
15638;DHT22;26604;53.596;10.042;2023-02-01T12:58:03;5.20;99.90
15638;DHT22;26604;53.596;10.042;2023-02-01T13:00:35;5.20;99.90
15638;DHT22;26604;53.596;10.042;2023-02-01T13:03:04;5.10;99.90
15638;DHT22;26604;53.596;10.042;2023-02-01T13:05:34;5.10;99.90
15638;DHT22;26604;53.596;10.042;2023-02-01T13:08:05;5.10;99.90
15638;DHT22;26604;53.596;10.042;2023-02-01T13:10:34;5.10;99.90
15638;DHT22;26604;53.596;10.042;2023-02-01T13:13:04;5.10;99.90
15638;DHT22;26604;53.596;10.042;2023-02-01T13:15:36;5.10;99.90
15638;DHT22;26604;53.596;10.042;2023-02-01T13:18:04;5.10;99.90
15638;DHT22;26604;53.596;10.042;2023-02-01T13:20:32;5.20;99.90
15638;DHT22;26604;53.596;10.042;2023-02-01T13:23:01;5.20;99.90
15638;DHT22;26604;53.596;10.042;2023-02-01T13:25:31;5.30;99.90
15638;DHT22;26604;53.596;10.042;2023-02-01T13:28:00;5.40;99.90
15638;DHT22;26604;53.596;10.042;2023-02-01T13:30:30;5.60;99.90
15638;DHT22;26604;53.596;10.042;2023-02-01T13:38:39;6.00;99.90
15638;DHT22;26604;53.596;10.042;2023-02-01T13:41:14;6.00;99.90
15638;DHT22;26604;53.596;10.042;2023-02-01T13:43:44;6.10;99.90
15638;DHT22;26604;53.596;10.042;2023-02-01T13:46:13;6.30;99.90
15638;DHT22;26604;53.596;10.042;2023-02-01T13:48:41;6.50;99.90
15638;DHT22;26604;53.596;10.042;2023-02-01T13:51:12;6.60;99.90
15638;DHT22;26604;53.596;10.042;2023-02-01T13:53:43;6.70;99.90
15638;DHT22;26604;53.596;10.042;2023-02-01T13:56:13;6.60;99.90
15638;DHT22;26604;53.596;10.042;2023-02-01T13:58:42;6.50;99.90
15638;DHT22;26604;53.596;10.042;2023-02-01T14:01:31;6.30;99.90
15638;DHT22;26604;53.596;10.042;2023-02-01T14:03:58;6.20;99.90
15638;DHT22;26604;53.596;10.042;2023-02-01T14:06:36;6.00;99.90
15638;DHT22;26604;53.596;10.042;2023-02-01T14:09:14;5.90;99.90
15638;DHT22;26604;53.596;10.042;2023-02-01T14:11:45;5.70;99.90
15638;DHT22;26604;53.596;10.042;2023-02-01T14:22:46;5.10;99.90
15638;DHT22;26604;53.596;10.042;2023-02-01T14:25:16;5.00;99.90
15638;DHT22;26604;53.596;10.042;2023-02-01T14:27:45;5.00;99.90
15638;DHT22;26604;53.596;10.042;2023-02-01T14:30:14;5.00;99.90
15638;DHT22;26604;53.596;10.042;2023-02-01T14:32:41;4.90;99.90
15638;DHT22;26604;53.596;10.042;2023-02-01T14:35:17;4.80;99.90
15638;DHT22;26604;53.596;10.042;2023-02-01T14:37:45;4.50;99.90
15638;DHT22;26604;53.596;10.042;2023-02-01T14:40:15;4.40;99.90
15638;DHT22;26604;53.596;10.042;2023-02-01T14:42:43;4.30;99.90
15638;DHT22;26604;53.596;10.042;2023-02-01T14:48:38;4.40;99.90
15638;DHT22;26604;53.596;10.042;2023-02-01T14:50:44;4.50;99.90
15638;DHT22;26604;53.596;10.042;2023-02-01T14:53:14;4.60;99.90
15638;DHT22;26604;53.596;10.042;2023-02-01T14:55:44;4.70;99.90
15638;DHT22;26604;53.596;10.042;2023-02-01T14:58:14;4.70;99.90
15638;DHT22;26604;53.596;10.042;2023-02-01T15:00:47;4.70;99.90
15638;DHT22;26604;53.596;10.042;2023-02-01T15:03:32;4.70;99.90
15638;DHT22;26604;53.596;10.042;2023-02-01T15:06:00;4.80;99.90
15638;DHT22;26604;53.596;10.042;2023-02-01T15:08:30;4.80;99.90
15638;DHT22;26604;53.596;10.042;2023-02-01T15:10:58;4.90;99.90
15638;DHT22;26604;53.596;10.042;2023-02-01T15:13:27;4.90;99.90
15638;DHT22;26604;53.596;10.042;2023-02-01T15:16:00;4.90;99.90
15638;DHT22;26604;53.596;10.042;2023-02-01T15:18:27;4.80;99.90
15638;DHT22;26604;53.596;10.042;2023-02-01T15:20:59;4.90;99.90
15638;DHT22;26604;53.596;10.042;2023-02-01T15:23:26;4.80;99.90
15638;DHT22;26604;53.596;10.042;2023-02-01T15:25:53;4.80;99.90
15638;DHT22;26604;53.596;10.042;2023-02-01T15:28:20;4.80;99.90
15638;DHT22;26604;53.596;10.042;2023-02-01T15:30:57;4.80;99.90
15638;DHT22;26604;53.596;10.042;2023-02-01T15:33:24;4.80;99.90
15638;DHT22;26604;53.596;10.042;2023-02-01T15:35:52;4.80;99.90
15638;DHT22;26604;53.596;10.042;2023-02-01T15:38:30;4.80;99.90
15638;DHT22;26604;53.596;10.042;2023-02-01T15:40:58;4.70;99.90
15638;DHT22;26604;53.596;10.042;2023-02-01T15:43:25;4.70;99.90
15638;DHT22;26604;53.596;10.042;2023-02-01T15:45:55;4.70;99.90
15638;DHT22;26604;53.596;10.042;2023-02-01T15:48:22;4.70;99.90
15638;DHT22;26604;53.596;10.042;2023-02-01T15:50:50;4.80;99.90
15638;DHT22;26604;53.596;10.042;2023-02-01T15:53:17;4.80;99.90
15638;DHT22;26604;53.596;10.042;2023-02-01T15:55:47;4.80;99.90
15638;DHT22;26604;53.596;10.042;2023-02-01T15:58:18;4.80;99.90
15638;DHT22;26604;53.596;10.042;2023-02-01T16:00:46;4.80;99.90
15638;DHT22;26604;53.596;10.042;2023-02-01T16:03:27;4.80;99.90
15638;DHT22;26604;53.596;10.042;2023-02-01T16:05:54;4.80;99.90
15638;DHT22;26604;53.596;10.042;2023-02-01T16:08:22;4.80;99.90
15638;DHT22;26604;53.596;10.042;2023-02-01T16:10:51;4.80;99.90
15638;DHT22;26604;53.596;10.042;2023-02-01T16:13:18;4.70;99.90
15638;DHT22;26604;53.596;10.042;2023-02-01T16:15:47;4.70;99.90